メインページ
METAR-TAF:

METAR-TAF

空港 :

ソルトレイクシティ, ユタ州, アメリカ合衆国

ソルトレイクシティ国際空港

緯度: 40-46-41N, 経度: 111-58-10W, 海抜: 1288m

現時点の気象観測

当レポートは58分前の10:54(UTC)に作成
南/南東の風 9kt
気温 11°C
湿度 50%
気圧 1012 hPa
視程: 16.1km
高度18000ftの千切れ雲あり

METAR: KSLC 231054Z 16009KT 10SM BKN180 11/01 A2988 RMK AO2 SLP087 T01110011

時間: 05:52 (11:52 UTC)

予報

当レポートは32分前の11:20(UTC)に作成
予報は23日の 12時(UTC)から 24日の 18時(UTC)まで有効
南/南東の風 8kt
視程: 10km
高度20000ftの千切れ雲あり
23日の 1500時(UTC)から
の風 13kt、最大19ktの突風を伴う
視程: 10km
高度20000ftの千切れ雲あり
23日の 1800時(UTC)から
西/北西の風 9kt
視程: 10km
高度8000ftの雲は散在している
高度12000ftの千切れ雲あり
23日の 2200時(UTC)から
の風 11kt
視程: 10km
高度6000ftの雲は散在している
高度10000ftの千切れ雲あり
近辺でにわか雨
24日の 0400時(UTC)から
南/南東の風 9kt
視程: 10km
高度7000ftの雲は散在している
高度12000ftの千切れ雲あり
24日の 0700時(UTC)から
南/南東の風 6kt
視程: 10km
高度15000ftの雲は散在している

TAF: KSLC 231120Z 2312/2418 16008KT P6SM BKN200 FM231500 17013G19KT P6SM BKN200 FM231800 30009KT P6SM SCT080 BKN120 FM232200 35011KT P6SM VCSH SCT060 BKN100 FM240400 16009KT P6SM SCT070 BKN120 FM240700 15006KT P6SM SCT150

4,000以上の空港の気象観測と天気予報(METAR報とTAF報)

利用可能な観測所は地図上に黄色い丸と赤い丸で示す。

丸の上にカーソルを重ねると観測所名を参照できる。

次にクリックすると気象観測と天気予報を参照できる。

マップの切り替え:黒色「×」印の緑ボタンをクリックして拡大、「-」印の緑ボタンをクリックして縮小、緑色の三角印をクリックして隣りの地図に切り替え


METAR-TAF: